Time;durP1;ratioP1;P1;durP2;ratioP2;P2;SDS_P1;SDS_P2;PMS_P1;PMS_P2;Temp;Humidity;BMP_temperature;BMP_pressure;BME280_temperature;BME280_humidity;BME280_pressure;Samples;Min_cycle;Max_cycle;Signal;HPM_P1;HPM_P2
2023/06/27 00:02:14;;;;;;;;;;;;;;;;;;5034849;27;89613;-75
2023/06/27 00:04:39;;;;;;;;;;;;;;;;;;5031609;28;89801;-76
2023/06/27 00:07:05;;;;;;;;;;;;;;;;;;5031474;27;90574;-73
2023/06/27 00:09:30;;;;;;;;;;;;;;;;;;5031662;28;90682;-73
2023/06/27 00:11:55;;;;;;;;;;;;;;;;;;5017586;28;91765;-73
2023/06/27 00:14:20;;;;;;;;;;;;;;;;;;5028405;28;89085;-72
2023/06/27 00:16:46;;;;;;;;;;;;;;;;;;5029844;28;89899;-75
2023/06/27 00:19:11;;;;;;;;;;;;;;;;;;5024599;28;89294;-73
2023/06/27 00:21:37;;;;;;;;;;;;;;;;;;5031960;28;89100;-73
2023/06/27 00:24:06;;;;;;;;;;;;;;;;;;5028600;27;89876;-74
2023/06/27 00:26:31;;;;;;;;;;;;;;;;;;5029249;27;89232;-73
2023/06/27 00:28:56;;;;;;;;;;;;;;;;;;5042546;27;91392;-77
2023/06/27 00:31:22;;;;;;;;;;;;;;;;;;5027866;28;89857;-77
2023/06/27 00:33:47;;;;;;;;;;;;;;;;;;5024292;28;91368;-73
2023/06/27 00:36:15;;;;;;;;;;;;;;;;;;5027829;28;89646;-73
2023/06/27 00:38:41;;;;;;;;;;;;;;;;;;5027595;28;89648;-73
2023/06/27 00:41:06;;;;;;;;;;;;;;;;;;5028092;27;89221;-71
2023/06/27 00:43:32;;;;;;;;;;;;;;;;;;5030534;28;89169;-72
2023/06/27 00:45:57;;;;;;;;;;;;;;;;;;5027609;28;89455;-72
2023/06/27 00:48:23;;;;;;;;;;;;;;;;;;5026436;28;90654;-79
2023/06/27 00:50:48;;;;;;;;;;;;;;;;;;5028419;27;89653;-76
2023/06/27 00:53:14;;;;;;;;;;;;;;;;;;5027806;27;88875;-79
2023/06/27 00:55:41;;;;;;;;;;;;;;;;;;5028283;27;89644;-76
2023/06/27 00:58:07;;;;;;;;;;;;;;;;;;5028335;28;89663;-77
2023/06/27 01:00:32;;;;;;;;;;;;;;;;;;5028842;28;89143;-78
2023/06/27 01:02:57;;;;;;;;;;;;;;;;;;5029331;28;90037;-76
2023/06/27 01:05:23;;;;;;;;;;;;;;;;;;5024231;27;89161;-76
2023/06/27 01:07:48;;;;;;;;;;;;;;;;;;5027310;27;90948;-79
2023/06/27 01:10:18;;;;;;;;;;;;;;;;;;5028634;27;88914;-77
2023/06/27 01:12:44;;;;;;;;;;;;;;;;;;5025909;27;89130;-75
2023/06/27 01:15:09;;;;;;;;;;;;;;;;;;5026188;28;89493;-74
2023/06/27 01:17:35;;;;;;;;;;;;;;;;;;5026313;28;92492;-75
2023/06/27 01:20:01;;;;;;;;;;;;;;;;;;5025096;28;89658;-75
2023/06/27 01:22:29;;;;;;;;;;;;;;;;;;5024258;27;89820;-74
2023/06/27 01:24:59;;;;;;;;;;;;;;;;;;5027330;27;89549;-75
2023/06/27 01:27:25;;;;;;;;;;;;;;;;;;5029420;28;89464;-73
2023/06/27 01:29:50;;;;;;;;;;;;;;;;;;5027540;27;89235;-72
2023/06/27 01:32:23;;;;;;;;;;;;;;;;;;5026267;28;91729;-72
2023/06/27 01:34:52;;;;;;;;;;;;;;;;;;5027567;27;89688;-73
2023/06/27 01:37:22;;;;;;;;;;;;;;;;;;5027991;27;89162;-72
2023/06/27 01:39:50;;;;;;;;;;;;;;;;;;5028493;27;89116;-76
2023/06/27 01:42:17;;;;;;;;;;;;;;;;;;5028058;27;88979;-76
2023/06/27 01:44:44;;;;;;;;;;;;;;;;;;5027976;28;89577;-78
2023/06/27 01:47:10;;;;;;;;;;;;;;;;;;5027778;28;89080;-79
2023/06/27 01:49:35;;;;;;;;;;;;;;;;;;5031073;27;91542;-76
2023/06/27 01:52:00;;;;;;;;;;;;;;;;;;5026413;28;89360;-79
2023/06/27 01:54:26;;;;;;;;;;;;;;;;;;5026959;28;91427;-79
2023/06/27 01:56:51;;;;;;;;;;;;;;;;;;5025882;28;91248;-72
2023/06/27 01:59:16;;;;;;;;;;;;;;;;;;5026801;28;89488;-73
2023/06/27 02:01:41;;;;;;;;;;;;;;;;;;5010082;28;90309;-74
2023/06/27 02:04:06;;;;;;;;;;;;;;;;;;5007818;28;89443;-73
2023/06/27 02:06:32;;;;;;;;;;;;;;;;;;5007207;28;89105;-74
2023/06/27 02:08:57;;;;;;;;;;;;;;;;;;5007196;28;89728;-78
2023/06/27 02:11:22;;;;;;;;;;;;;;;;;;5009762;28;90135;-76
2023/06/27 02:13:47;;;;;;;;;;;;;;;;;;5007362;28;89898;-75
2023/06/27 02:16:12;;;;;;;;;;;;;;;;;;5006941;28;90482;-73
2023/06/27 02:18:38;;;;;;;;;;;;;;;;;;5007495;28;90377;-74
2023/06/27 02:21:03;;;;;;;;;;;;;;;;;;5007402;28;91184;-76
2023/06/27 02:23:28;;;;;;;;;;;;;;;;;;5007140;28;90702;-73
2023/06/27 02:25:55;;;;;;;;;;;;;;;;;;5007899;28;89904;-74
2023/06/27 02:28:20;;;;;;;;;;;;;;;;;;5019460;27;90111;-72
2023/06/27 02:30:46;;;;;;;;;;;;;;;;;;5010317;28;89346;-72
2023/06/27 02:33:11;;;;;;;;;;;;;;;;;;5007266;28;89679;-73
2023/06/27 02:35:36;;;;;;;;;;;;;;;;;;5007040;28;89326;-72
2023/06/27 02:38:01;;;;;;;;;;;;;;;;;;5006975;28;89031;-74
2023/06/27 02:40:28;;;;;;;;;;;;;;;;;;5006650;28;89559;-75
2023/06/27 02:42:53;;;;;;;;;;;;;;;;;;5021195;28;92168;-77
2023/06/27 02:45:18;;;;;;;;;;;;;;;;;;5006572;28;89104;-73
2023/06/27 02:47:43;;;;;;;;;;;;;;;;;;5021706;28;91205;-73
2023/06/27 02:50:09;;;;;;;;;;;;;;;;;;5025730;28;89407;-73
2023/06/27 02:52:34;;;;;;;;;;;;;;;;;;5030004;27;89420;-73
2023/06/27 02:54:59;;;;;;;;;;;;;;;;;;5026822;28;90254;-78
2023/06/27 02:57:25;;;;;;;;;;;;;;;;;;5027122;28;89978;-78
2023/06/27 02:59:50;;;;;;;;;;;;;;;;;;5026816;27;90801;-74
2023/06/27 03:02:15;;;;;;;;;;;;;;;;;;5026932;28;90249;-79
2023/06/27 03:04:40;;;;;;;;;;;;;;;;;;5027078;27;89793;-73
2023/06/27 03:07:06;;;;;;;;;;;;;;;;;;5027542;28;88986;-77
2023/06/27 03:09:32;;;;;;;;;;;;;;;;;;5025094;28;89692;-77
2023/06/27 03:11:57;;;;;;;;;;;;;;;;;;5026959;27;89550;-79
2023/06/27 03:14:23;;;;;;;;;;;;;;;;;;5029526;28;89933;-76
2023/06/27 03:16:48;;;;;;;;;;;;;;;;;;5028187;28;89050;-79
2023/06/27 03:19:13;;;;;;;;;;;;;;;;;;5027416;27;88641;-79
2023/06/27 03:21:38;;;;;;;;;;;;;;;;;;5029495;28;89080;-73
2023/06/27 03:24:04;;;;;;;;;;;;;;;;;;5019727;27;91670;-76
2023/06/27 03:26:30;;;;;;;;;;;;;;;;;;5013381;28;89724;-76
2023/06/27 03:28:55;;;;;;;;;;;;;;;;;;5014036;28;89349;-73
2023/06/27 03:31:20;;;;;;;;;;;;;;;;;;5019842;28;89585;-76
2023/06/27 03:33:46;;;;;;;;;;;;;;;;;;5024152;28;89735;-74
2023/06/27 03:36:11;;;;;;;;;;;;;;;;;;5027803;27;89112;-77
2023/06/27 03:38:37;;;;;;;;;;;;;;;;;;5024725;28;89748;-79
2023/06/27 03:41:02;;;;;;;;;;;;;;;;;;5025322;27;89530;-79
2023/06/27 03:43:27;;;;;;;;;;;;;;;;;;5025421;28;89601;-80
2023/06/27 03:45:53;;;;;;;;;;;;;;;;;;5024524;28;89681;-80
2023/06/27 03:48:18;;;;;;;;;;;;;;;;;;5023974;28;90201;-77
2023/06/27 03:50:43;;;;;;;;;;;;;;;;;;5025882;27;90620;-79
2023/06/27 03:53:08;;;;;;;;;;;;;;;;;;5024782;28;90454;-80
2023/06/27 03:55:33;;;;;;;;;;;;;;;;;;5026674;28;89679;-77
2023/06/27 03:57:59;;;;;;;;;;;;;;;;;;5034702;27;90549;-78
2023/06/27 04:00:24;;;;;;;;;;;;;;;;;;5027692;28;89184;-74
2023/06/27 04:02:50;;;;;;;;;;;;;;;;;;5025308;28;89449;-76
2023/06/27 04:05:15;;;;;;;;;;;;;;;;;;5029148;28;89768;-78
2023/06/27 04:07:41;;;;;;;;;;;;;;;;;;5028423;28;89601;-79
2023/06/27 04:10:07;;;;;;;;;;;;;;;;;;5027821;27;89268;-79
2023/06/27 04:12:32;;;;;;;;;;;;;;;;;;5027646;27;91596;-80
2023/06/27 04:14:57;;;;;;;;;;;;;;;;;;5028079;28;89707;-78
2023/06/27 04:17:23;;;;;;;;;;;;;;;;;;5023295;27;89597;-78
2023/06/27 04:19:49;;;;;;;;;;;;;;;;;;5028248;28;89862;-78
2023/06/27 04:22:14;;;;;;;;;;;;;;;;;;5026728;28;89575;-77
2023/06/27 04:24:39;;;;;;;;;;;;;;;;;;5027602;28;89908;-79
2023/06/27 04:27:05;;;;;;;;;;;;;;;;;;5026386;28;92037;-76
2023/06/27 04:29:30;;;;;;;;;;;;;;;;;;5028026;28;89031;-76
2023/06/27 04:31:55;;;;;;;;;;;;;;;;;;5026983;28;89815;-76
2023/06/27 04:34:20;;;;;;;;;;;;;;;;;;5027000;28;89360;-76
2023/06/27 04:36:45;;;;;;;;;;;;;;;;;;5026938;27;89549;-76
2023/06/27 04:39:11;;;;;;;;;;;;;;;;;;5030725;28;90465;-77
2023/06/27 04:41:36;;;;;;;;;;;;;;;;;;5028640;28;89847;-76
2023/06/27 04:44:01;;;;;;;;;;;;;;;;;;5027707;27;89751;-74
2023/06/27 04:46:28;;;;;;;;;;;;;;;;;;5026263;27;89368;-75
2023/06/27 04:48:57;;;;;;;;;;;;;;;;;;5027306;27;90366;-76
2023/06/27 04:51:32;;;;;;;;;;;;;;;;;;5028357;27;90426;-76
2023/06/27 04:53:57;;;;;;;;;;;;;;;;;;5028513;28;89570;-75
2023/06/27 04:56:22;;;;;;;;;;;;;;;;;;5027549;28;88119;-77
2023/06/27 04:58:48;;;;;;;;;;;;;;;;;;5027391;28;88946;-78
2023/06/27 05:01:13;;;;;;;;;;;;;;;;;;5030669;28;89142;-76
2023/06/27 05:03:38;;;;;;;;;;;;;;;;;;5025266;28;89620;-76
2023/06/27 05:06:04;;;;;;;;;;;;;;;;;;5023311;28;89643;-75
2023/06/27 05:08:29;;;;;;;;;;;;;;;;;;5025881;27;89061;-77
2023/06/27 05:10:54;;;;;;;;;;;;;;;;;;5025321;27;92316;-78
2023/06/27 05:13:19;;;;;;;;;;;;;;;;;;5024779;28;90061;-77
2023/06/27 05:15:45;;;;;;;;;;;;;;;;;;5021702;28;89398;-78
2023/06/27 05:18:14;;;;;;;;;;;;;;;;;;5024940;28;90180;-79
2023/06/27 05:20:39;;;;;;;;;;;;;;;;;;5025829;28;90555;-72
2023/06/27 05:23:05;;;;;;;;;;;;;;;;;;5025158;28;88997;-70
2023/06/27 05:25:31;;;;;;;;;;;;;;;;;;5023516;28;90547;-70
2023/06/27 05:27:56;;;;;;;;;;;;;;;;;;5022847;28;91334;-73
2023/06/27 05:30:21;;;;;;;;;;;;;;;;;;5020801;28;89802;-74
2023/06/27 05:32:47;;;;;;;;;;;;;;;;;;5025494;27;89695;-73
2023/06/27 05:35:12;;;;;;;;;;;;;;;;;;5024351;28;89722;-73
2023/06/27 05:37:37;;;;;;;;;;;;;;;;;;5021762;28;90150;-72
2023/06/27 05:40:03;;;;;;;;;;;;;;;;;;5024684;28;90437;-72
2023/06/27 05:42:28;;;;;;;;;;;;;;;;;;5025649;27;90371;-72
2023/06/27 05:44:54;;;;;;;;;;;;;;;;;;5025302;27;92168;-73
2023/06/27 05:47:19;;;;;;;;;;;;;;;;;;5023052;28;89103;-72
2023/06/27 05:49:44;;;;;;;;;;;;;;;;;;5020974;27;91937;-72
2023/06/27 05:52:09;;;;;;;;;;;;;;;;;;5022166;28;89249;-73
2023/06/27 05:54:34;;;;;;;;;;;;;;;;;;5024302;28;89748;-72
2023/06/27 05:57:00;;;;;;;;;;;;;;;;;;5024761;28;89865;-73
2023/06/27 05:59:25;;;;;;;;;;;;;;;;;;5023737;27;90218;-73
2023/06/27 06:01:50;;;;;;;;;;;;;;;;;;5024622;28;89013;-73
2023/06/27 06:04:15;;;;;;;;;;;;;;;;;;5018291;28;90050;-73
2023/06/27 06:06:41;;;;;;;;;;;;;;;;;;5019318;28;89361;-72
2023/06/27 06:09:06;;;;;;;;;;;;;;;;;;5022314;27;89758;-76
2023/06/27 06:11:34;;;;;;;;;;;;;;;;;;5019049;28;89552;-72
2023/06/27 06:14:00;;;;;;;;;;;;;;;;;;5023682;28;90141;-71
2023/06/27 06:16:25;;;;;;;;;;;;;;;;;;5019090;27;91109;-74
2023/06/27 06:18:50;;;;;;;;;;;;;;;;;;5021833;28;90392;-74
2023/06/27 06:21:15;;;;;;;;;;;;;;;;;;5021978;28;90121;-74
2023/06/27 06:23:41;;;;;;;;;;;;;;;;;;5020195;28;91634;-76
2023/06/27 06:26:06;;;;;;;;;;;;;;;;;;5025329;28;89369;-73
2023/06/27 06:28:31;;;;;;;;;;;;;;;;;;5022287;28;90857;-74
2023/06/27 06:30:57;;;;;;;;;;;;;;;;;;5024147;28;89836;-75
2023/06/27 06:33:22;;;;;;;;;;;;;;;;;;5019596;28;91955;-74
2023/06/27 06:35:47;;;;;;;;;;;;;;;;;;5022399;28;90091;-75
2023/06/27 06:38:13;;;;;;;;;;;;;;;;;;5020456;27;88998;-76
2023/06/27 06:40:38;;;;;;;;;;;;;;;;;;5020210;28;89325;-75
2023/06/27 06:43:03;;;;;;;;;;;;;;;;;;5022969;28;89733;-71
2023/06/27 06:45:28;;;;;;;;;;;;;;;;;;5022498;28;89505;-75
2023/06/27 06:47:54;;;;;;;;;;;;;;;;;;5026483;28;89271;-72
2023/06/27 06:50:20;;;;;;;;;;;;;;;;;;5023605;27;90270;-75
2023/06/27 06:52:45;;;;;;;;;;;;;;;;;;5023712;27;90956;-75
2023/06/27 06:55:10;;;;;;;;;;;;;;;;;;5020310;27;89680;-72
2023/06/27 06:57:36;;;;;;;;;;;;;;;;;;5022737;28;89555;-75
2023/06/27 07:00:02;;;;;;;;;;;;;;;;;;5023589;28;90621;-75
2023/06/27 07:02:27;;;;;;;;;;;;;;;;;;5016154;28;92299;-75
2023/06/27 07:04:52;;;;;;;;;;;;;;;;;;5020373;28;89247;-76
2023/06/27 07:07:17;;;;;;;;;;;;;;;;;;5024228;28;89535;-75
2023/06/27 07:09:42;;;;;;;;;;;;;;;;;;5026785;28;91077;-72
2023/06/27 07:12:08;;;;;;;;;;;;;;;;;;5022166;28;89592;-74
2023/06/27 07:14:33;;;;;;;;;;;;;;;;;;5023541;27;90508;-74
2023/06/27 07:16:58;;;;;;;;;;;;;;;;;;5022470;28;89581;-74
2023/06/27 07:19:23;;;;;;;;;;;;;;;;;;5022370;28;89758;-75
2023/06/27 07:21:49;;;;;;;;;;;;;;;;;;5023453;28;91682;-75
2023/06/27 07:24:14;;;;;;;;;;;;;;;;;;5022719;28;89340;-75
2023/06/27 07:26:39;;;;;;;;;;;;;;;;;;5020911;27;89203;-75
2023/06/27 07:29:04;;;;;;;;;;;;;;;;;;5025508;28;90708;-75
2023/06/27 07:31:30;;;;;;;;;;;;;;;;;;5031103;28;89268;-76
2023/06/27 07:33:55;;;;;;;;;;;;;;;;;;5026911;28;90087;-71
2023/06/27 07:36:20;;;;;;;;;;;;;;;;;;5025220;28;90114;-72
2023/06/27 07:38:46;;;;;;;;;;;;;;;;;;5027929;28;89157;-74
2023/06/27 07:41:11;;;;;;;;;;;;;;;;;;5028599;28;89646;-75
2023/06/27 07:43:36;;;;;;;;;;;;;;;;;;5025852;28;90861;-72
2023/06/27 07:46:01;;;;;;;;;;;;;;;;;;5027282;28;90431;-74
2023/06/27 07:48:27;;;;;;;;;;;;;;;;;;5026751;28;90850;-75
2023/06/27 07:50:52;;;;;;;;;;;;;;;;;;5023283;28;90287;-74
2023/06/27 07:53:17;;;;;;;;;;;;;;;;;;5031899;27;90602;-76
2023/06/27 07:55:42;;;;;;;;;;;;;;;;;;5027730;28;91014;-74
2023/06/27 07:58:07;;;;;;;;;;;;;;;;;;5025109;28;89813;-74
2023/06/27 08:00:33;;;;;;;;;;;;;;;;;;5021748;28;89850;-75
2023/06/27 08:02:59;;;;;;;;;;;;;;;;;;5025545;28;90922;-72
2023/06/27 08:05:27;;;;;;;;;;;;;;;;;;5026618;28;89219;-75
2023/06/27 08:07:52;;;;;;;;;;;;;;;;;;5023890;28;90751;-72
2023/06/27 08:10:17;;;;;;;;;;;;;;;;;;5023368;28;89709;-76
2023/06/27 08:12:43;;;;;;;;;;;;;;;;;;5026611;28;89108;-76
2023/06/27 08:15:08;;;;;;;;;;;;;;;;;;5028837;28;90053;-76
2023/06/27 08:17:33;;;;;;;;;;;;;;;;;;5025765;27;90404;-74
2023/06/27 08:19:58;;;;;;;;;;;;;;;;;;5026852;28;90777;-73
2023/06/27 08:22:24;;;;;;;;;;;;;;;;;;5026094;28;89371;-72
2023/06/27 08:24:49;;;;;;;;;;;;;;;;;;5024609;27;89600;-75
2023/06/27 08:27:14;;;;;;;;;;;;;;;;;;5022008;28;89786;-74
2023/06/27 08:29:40;;;;;;;;;;;;;;;;;;5024266;27;89505;-75
2023/06/27 08:32:05;;;;;;;;;;;;;;;;;;5022536;28;89646;-76
2023/06/27 08:34:33;;;;;;;;;;;;;;;;;;5024562;27;89725;-75
2023/06/27 08:36:59;;;;;;;;;;;;;;;;;;5021174;28;90404;-73
2023/06/27 08:39:24;;;;;;;;;;;;;;;;;;5021687;27;90693;-73
2023/06/27 08:41:50;;;;;;;;;;;;;;;;;;5022050;27;90849;-73
2023/06/27 08:44:15;;;;;;;;;;;;;;;;;;5025109;27;89370;-73
2023/06/27 08:46:42;;;;;;;;;;;;;;;;;;5020934;28;90915;-72
2023/06/27 08:49:10;;;;;;;;;;;;;;;;;;5019046;27;91021;-73
2023/06/27 08:51:37;;;;;;;;;;;;;;;;;;5024663;27;90588;-73
2023/06/27 08:54:10;;;;;;;;;;;;;;;;;;5024313;28;89958;-73
2023/06/27 08:56:36;;;;;;;;;;;;;;;;;;5027176;28;89359;-73
2023/06/27 08:59:03;;;;;;;;;;;;;;;;;;5025763;28;90699;-72
2023/06/27 09:01:31;;;;;;;;;;;;;;;;;;5025544;27;90420;-73
2023/06/27 09:03:56;;;;;;;;;;;;;;;;;;5025594;28;89715;-72
2023/06/27 09:06:21;;;;;;;;;;;;;;;;;;5023985;28;90651;-73
2023/06/27 09:08:48;;;;;;;;;;;;;;;;;;5019110;28;90201;-73
2023/06/27 09:11:15;;;;;;;;;;;;;;;;;;5023470;27;90958;-73
2023/06/27 09:13:40;;;;;;;;;;;;;;;;;;5025824;28;91574;-73
2023/06/27 09:16:05;;;;;;;;;;;;;;;;;;5021143;28;89201;-73
2023/06/27 09:18:31;;;;;;;;;;;;;;;;;;5024855;27;89051;-73
2023/06/27 09:20:56;;;;;;;;;;;;;;;;;;5024240;28;89209;-73
2023/06/27 09:23:21;;;;;;;;;;;;;;;;;;5023569;28;89341;-73
2023/06/27 09:26:04;;;;;;;;;;;;;;;;;;5018545;28;91059;-74
2023/06/27 09:28:30;;;;;;;;;;;;;;;;;;5019191;27;89484;-73
2023/06/27 09:30:55;;;;;;;;;;;;;;;;;;5025474;27;89503;-74
2023/06/27 09:33:21;;;;;;;;;;;;;;;;;;5024003;28;90351;-73
2023/06/27 09:35:46;;;;;;;;;;;;;;;;;;5024872;27;90225;-74
2023/06/27 09:38:12;;;;;;;;;;;;;;;;;;5020711;28;89791;-72
2023/06/27 09:40:37;;;;;;;;;;;;;;;;;;5025621;27;89233;-72
2023/06/27 09:43:04;;;;;;;;;;;;;;;;;;5022958;28;90985;-72
2023/06/27 09:45:30;;;;;;;;;;;;;;;;;;5019933;28;90113;-73
2023/06/27 09:47:55;;;;;;;;;;;;;;;;;;5017733;28;90129;-73
2023/06/27 09:50:24;;;;;;;;;;;;;;;;;;5024786;27;89456;-73
2023/06/27 09:52:51;;;;;;;;;;;;;;;;;;5019552;27;89738;-73
2023/06/27 09:55:18;;;;;;;;;;;;;;;;;;5018441;28;91051;-73
2023/06/27 09:57:44;;;;;;;;;;;;;;;;;;5021613;28;90682;-73
2023/06/27 10:00:11;;;;;;;;;;;;;;;;;;5020127;27;89700;-71
2023/06/27 10:02:36;;;;;;;;;;;;;;;;;;5028395;28;89652;-74
2023/06/27 10:05:03;;;;;;;;;;;;;;;;;;5020212;28;92309;-73
2023/06/27 10:07:29;;;;;;;;;;;;;;;;;;5020563;27;91429;-73
2023/06/27 10:09:54;;;;;;;;;;;;;;;;;;5021095;28;89938;-71
2023/06/27 10:12:20;;;;;;;;;;;;;;;;;;5017590;28;89724;-77
2023/06/27 10:14:46;;;;;;;;;;;;;;;;;;5020320;28;91276;-73
2023/06/27 10:17:18;;;;;;;;;;;;;;;;;;5017026;27;90001;-70
2023/06/27 10:19:44;;;;;;;;;;;;;;;;;;5024684;27;90730;-71
2023/06/27 10:22:19;;;;;;;;;;;;;;;;;;5022079;27;90246;-73
2023/06/27 10:24:46;;;;;;;;;;;;;;;;;;5025532;28;89900;-72
2023/06/27 10:27:13;;;;;;;;;;;;;;;;;;5016517;27;89271;-74
2023/06/27 10:29:42;;;;;;;;;;;;;;;;;;5021481;28;90772;-72
2023/06/27 10:32:10;;;;;;;;;;;;;;;;;;5016938;27;91459;-71
2023/06/27 10:34:40;;;;;;;;;;;;;;;;;;5020574;28;91002;-73
2023/06/27 10:37:10;;;;;;;;;;;;;;;;;;5023729;28;89477;-70
2023/06/27 10:39:40;;;;;;;;;;;;;;;;;;5019919;28;90724;-66
2023/06/27 10:42:20;;;;;;;;;;;;;;;;;;5019753;28;91404;-70
2023/06/27 10:44:59;;;;;;;;;;;;;;;;;;5021947;28;89562;-72
2023/06/27 10:47:25;;;;;;;;;;;;;;;;;;5024262;28;89544;-73
2023/06/27 10:49:52;;;;;;;;;;;;;;;;;;5038957;27;90277;-71
2023/06/27 10:52:21;;;;;;;;;;;;;;;;;;5023438;28;89741;-76
2023/06/27 10:55:06;;;;;;;;;;;;;;;;;;5022163;27;90068;-75
2023/06/27 10:57:40;;;;;;;;;;;;;;;;;;5023031;28;89441;-73
2023/06/27 11:00:13;;;;;;;;;;;;;;;;;;5024927;27;89293;-70
2023/06/27 11:02:41;;;;;;;;;;;;;;;;;;5021545;28;90026;-71
2023/06/27 11:05:08;;;;;;;;;;;;;;;;;;5016646;28;90499;-74
2023/06/27 11:07:36;;;;;;;;;;;;;;;;;;5021193;28;90113;-74
2023/06/27 11:10:20;;;;;;;;;;;;;;;;;;5022479;28;89583;-73
2023/06/27 11:12:48;;;;;;;;;;;;;;;;;;5019831;28;89640;-72
2023/06/27 11:15:13;;;;;;;;;;;;;;;;;;5023985;27;89821;-74
2023/06/27 11:17:39;;;;;;;;;;;;;;;;;;5022246;27;88968;-73
2023/06/27 11:20:08;;;;;;;;;;;;;;;;;;5018115;28;89819;-72
2023/06/27 11:22:33;;;;;;;;;;;;;;;;;;5015950;28;90203;-73
2023/06/27 11:24:59;;;;;;;;;;;;;;;;;;5025111;27;89536;-73
2023/06/27 11:27:30;;;;;;;;;;;;;;;;;;5021528;28;89751;-74
2023/06/27 11:29:58;;;;;;;;;;;;;;;;;;5023981;28;89502;-74
2023/06/27 11:32:25;;;;;;;;;;;;;;;;;;5019123;28;90190;-73
2023/06/27 11:34:50;;;;;;;;;;;;;;;;;;5015434;28;89056;-73
2023/06/27 11:37:16;;;;;;;;;;;;;;;;;;5017678;28;89465;-73
2023/06/27 11:39:50;;;;;;;;;;;;;;;;;;5016957;28;89728;-72
2023/06/27 11:42:16;;;;;;;;;;;;;;;;;;5037946;27;92578;-73
2023/06/27 11:44:41;;;;;;;;;;;;;;;;;;5024445;28;89643;-73
2023/06/27 11:47:06;;;;;;;;;;;;;;;;;;5022900;27;90629;-72
2023/06/27 11:49:32;;;;;;;;;;;;;;;;;;5023383;27;89252;-73
2023/06/27 11:51:58;;;;;;;;;;;;;;;;;;5026687;28;89924;-70
2023/06/27 11:54:23;;;;;;;;;;;;;;;;;;5023590;27;90334;-73
2023/06/27 11:56:50;;;;;;;;;;;;;;;;;;5021323;27;90304;-73
2023/06/27 11:59:15;;;;;;;;;;;;;;;;;;5021141;27;90678;-73
2023/06/27 12:01:44;;;;;;;;;;;;;;;;;;5022526;27;92343;-73
2023/06/27 12:04:16;;;;;;;;;;;;;;;;;;5021446;28;89159;-73
2023/06/27 12:06:42;;;;;;;;;;;;;;;;;;5019249;28;90767;-73
2023/06/27 12:09:08;;;;;;;;;;;;;;;;;;5018058;28;89244;-73
2023/06/27 12:11:34;;;;;;;;;;;;;;;;;;5034498;27;90637;-73
2023/06/27 12:13:59;;;;;;;;;;;;;;;;;;5021069;27;89893;-74
2023/06/27 12:16:27;;;;;;;;;;;;;;;;;;5018256;27;92380;-74
2023/06/27 12:18:52;;;;;;;;;;;;;;;;;;5024697;28;89361;-73
2023/06/27 12:21:17;;;;;;;;;;;;;;;;;;5025311;28;91108;-74
2023/06/27 12:23:43;;;;;;;;;;;;;;;;;;5014890;28;89834;-74
2023/06/27 12:26:08;;;;;;;;;;;;;;;;;;5023903;28;89711;-74
2023/06/27 12:28:33;;;;;;;;;;;;;;;;;;5025822;28;90078;-74
2023/06/27 12:30:59;;;;;;;;;;;;;;;;;;5025278;27;89340;-73
2023/06/27 12:33:24;;;;;;;;;;;;;;;;;;5024815;28;89771;-74
2023/06/27 12:35:49;;;;;;;;;;;;;;;;;;5023687;27;89360;-74
2023/06/27 12:38:15;;;;;;;;;;;;;;;;;;5021548;27;90398;-75
2023/06/27 12:40:40;;;;;;;;;;;;;;;;;;5021789;27;90893;-74
2023/06/27 12:43:06;;;;;;;;;;;;;;;;;;5020235;28;90435;-74
2023/06/27 12:45:32;;;;;;;;;;;;;;;;;;5021060;27;90171;-74
2023/06/27 12:47:57;;;;;;;;;;;;;;;;;;5024996;28;89660;-74
2023/06/27 12:50:23;;;;;;;;;;;;;;;;;;5022481;28;89547;-75
2023/06/27 12:52:48;;;;;;;;;;;;;;;;;;5019469;28;89710;-74
2023/06/27 12:55:14;;;;;;;;;;;;;;;;;;5021769;28;90923;-74
2023/06/27 12:57:40;;;;;;;;;;;;;;;;;;5025703;28;90622;-74
2023/06/27 13:00:08;;;;;;;;;;;;;;;;;;5021239;28;90299;-75
2023/06/27 13:02:34;;;;;;;;;;;;;;;;;;5024796;27;89204;-74
2023/06/27 13:04:59;;;;;;;;;;;;;;;;;;5021003;28;89707;-74
2023/06/27 13:07:24;;;;;;;;;;;;;;;;;;5023126;28;89564;-74
2023/06/27 13:09:49;;;;;;;;;;;;;;;;;;5022478;28;90577;-74
2023/06/27 13:12:14;;;;;;;;;;;;;;;;;;5020814;28;90138;-74
2023/06/27 13:14:40;;;;;;;;;;;;;;;;;;5017647;28;89846;-73
2023/06/27 13:17:05;;;;;;;;;;;;;;;;;;5024641;28;90272;-74
2023/06/27 13:19:31;;;;;;;;;;;;;;;;;;5022617;27;89611;-75
2023/06/27 13:21:56;;;;;;;;;;;;;;;;;;5023764;27;89318;-74
2023/06/27 13:24:21;;;;;;;;;;;;;;;;;;5022318;28;89655;-74
2023/06/27 13:26:47;;;;;;;;;;;;;;;;;;5018140;28;89370;-75
2023/06/27 13:29:12;;;;;;;;;;;;;;;;;;5025346;28;89574;-74
2023/06/27 13:31:37;;;;;;;;;;;;;;;;;;5024318;28;91117;-74
2023/06/27 13:34:03;;;;;;;;;;;;;;;;;;5023497;27;89917;-74
2023/06/27 13:36:29;;;;;;;;;;;;;;;;;;5022010;28;90687;-74
2023/06/27 13:38:54;;;;;;;;;;;;;;;;;;5026052;27;90778;-75
2023/06/27 13:41:20;;;;;;;;;;;;;;;;;;5020429;28;90385;-75
2023/06/27 13:43:45;;;;;;;;;;;;;;;;;;5021627;27;89994;-74
2023/06/27 13:46:10;;;;;;;;;;;;;;;;;;5022269;28;89346;-75
2023/06/27 13:48:35;;;;;;;;;;;;;;;;;;5021377;28;89505;-75
2023/06/27 13:51:01;;;;;;;;;;;;;;;;;;5019069;28;89606;-75
2023/06/27 13:53:26;;;;;;;;;;;;;;;;;;5019529;28;89474;-74
2023/06/27 13:55:52;;;;;;;;;;;;;;;;;;5019534;28;89533;-74
2023/06/27 13:58:17;;;;;;;;;;;;;;;;;;5022291;27;90162;-74
2023/06/27 14:00:47;;;;;;;;;;;;;;;;;;5022745;28;89300;-74
2023/06/27 14:03:12;;;;;;;;;;;;;;;;;;5023145;28;89745;-75
2023/06/27 14:05:37;;;;;;;;;;;;;;;;;;5022382;28;89733;-74
2023/06/27 14:08:03;;;;;;;;;;;;;;;;;;5024929;28;89085;-74
2023/06/27 14:10:29;;;;;;;;;;;;;;;;;;5018519;28;90223;-74
2023/06/27 14:12:54;;;;;;;;;;;;;;;;;;5021034;27;89846;-74
2023/06/27 14:15:20;;;;;;;;;;;;;;;;;;5025661;28;90340;-75
2023/06/27 14:17:45;;;;;;;;;;;;;;;;;;5022127;28;92433;-74
2023/06/27 14:20:11;;;;;;;;;;;;;;;;;;5023823;28;89559;-75
2023/06/27 14:22:36;;;;;;;;;;;;;;;;;;5024264;27;89951;-74
2023/06/27 14:25:05;;;;;;;;;;;;;;;;;;5022153;27;89620;-74
2023/06/27 14:27:31;;;;;;;;;;;;;;;;;;5023598;28;89583;-74
2023/06/27 14:29:56;;;;;;;;;;;;;;;;;;5014211;27;90049;-75
2023/06/27 14:32:21;;;;;;;;;;;;;;;;;;5020007;28;92575;-74
2023/06/27 14:34:47;;;;;;;;;;;;;;;;;;5022312;28;89439;-74
2023/06/27 14:37:12;;;;;;;;;;;;;;;;;;5023958;28;89912;-73
2023/06/27 14:39:37;;;;;;;;;;;;;;;;;;5019275;27;89108;-73
2023/06/27 14:42:03;;;;;;;;;;;;;;;;;;5018148;28;89315;-74
2023/06/27 14:44:28;;;;;;;;;;;;;;;;;;5019107;27;89272;-73
2023/06/27 14:46:53;;;;;;;;;;;;;;;;;;5023007;28;89794;-74
2023/06/27 14:49:18;;;;;;;;;;;;;;;;;;5023438;28;90041;-74
2023/06/27 14:51:44;;;;;;;;;;;;;;;;;;5019185;28;91063;-74
2023/06/27 14:54:09;;;;;;;;;;;;;;;;;;5023458;28;89173;-74
2023/06/27 14:56:34;;;;;;;;;;;;;;;;;;5024320;28;90052;-74
2023/06/27 14:59:00;;;;;;;;;;;;;;;;;;5020976;28;89591;-74
2023/06/27 15:01:25;;;;;;;;;;;;;;;;;;5016912;27;90594;-74
2023/06/27 15:03:51;;;;;;;;;;;;;;;;;;5021798;27;89750;-74
2023/06/27 15:06:16;;;;;;;;;;;;;;;;;;5023362;27;89345;-74
2023/06/27 15:08:41;;;;;;;;;;;;;;;;;;5018195;28;91222;-74
2023/06/27 15:11:06;;;;;;;;;;;;;;;;;;5021875;28;90764;-75
2023/06/27 15:13:32;;;;;;;;;;;;;;;;;;5017556;28;90405;-75
2023/06/27 15:15:57;;;;;;;;;;;;;;;;;;5019045;28;89593;-75
2023/06/27 15:18:23;;;;;;;;;;;;;;;;;;5019791;28;92281;-75
2023/06/27 15:20:48;;;;;;;;;;;;;;;;;;5021289;28;89907;-75
2023/06/27 15:23:14;;;;;;;;;;;;;;;;;;5019650;27;89285;-76
2023/06/27 15:25:39;;;;;;;;;;;;;;;;;;5024848;28;89730;-76
2023/06/27 15:28:06;;;;;;;;;;;;;;;;;;5021239;28;89693;-77
2023/06/27 15:30:31;;;;;;;;;;;;;;;;;;5020598;28;89581;-76
2023/06/27 15:32:57;;;;;;;;;;;;;;;;;;5019265;28;89716;-75
2023/06/27 15:35:22;;;;;;;;;;;;;;;;;;5015130;28;90825;-75
2023/06/27 15:37:47;;;;;;;;;;;;;;;;;;5021850;28;90742;-77
2023/06/27 15:40:13;;;;;;;;;;;;;;;;;;5024011;28;89658;-77
2023/06/27 15:42:38;;;;;;;;;;;;;;;;;;5016257;27;90712;-75
2023/06/27 15:45:05;;;;;;;;;;;;;;;;;;5020274;28;90423;-77
2023/06/27 15:47:30;;;;;;;;;;;;;;;;;;5026134;27;89034;-75
2023/06/27 15:49:55;;;;;;;;;;;;;;;;;;5023281;28;89574;-76
2023/06/27 15:52:21;;;;;;;;;;;;;;;;;;5024695;28;89120;-76
2023/06/27 15:54:46;;;;;;;;;;;;;;;;;;5025687;28;89798;-74
2023/06/27 15:57:11;;;;;;;;;;;;;;;;;;5024382;28;90812;-75
2023/06/27 15:59:36;;;;;;;;;;;;;;;;;;5026103;28;89177;-75
2023/06/27 16:02:02;;;;;;;;;;;;;;;;;;5027396;28;89755;-75
2023/06/27 16:04:27;;;;;;;;;;;;;;;;;;5023671;28;89543;-76
2023/06/27 16:06:54;;;;;;;;;;;;;;;;;;5024809;28;89753;-77
2023/06/27 16:09:19;;;;;;;;;;;;;;;;;;5028195;28;90105;-75
2023/06/27 16:11:44;;;;;;;;;;;;;;;;;;5024013;28;90837;-76
2023/06/27 16:14:09;;;;;;;;;;;;;;;;;;5026351;28;90034;-74
2023/06/27 16:16:35;;;;;;;;;;;;;;;;;;5027226;28;90895;-74
2023/06/27 16:19:00;;;;;;;;;;;;;;;;;;5027222;28;90931;-73
2023/06/27 16:21:25;;;;;;;;;;;;;;;;;;5024319;28;91149;-73
2023/06/27 16:23:50;;;;;;;;;;;;;;;;;;5025657;28;89244;-71
2023/06/27 16:26:15;;;;;;;;;;;;;;;;;;5025304;28;89102;-74
2023/06/27 16:28:41;;;;;;;;;;;;;;;;;;5024555;28;89706;-74
2023/06/27 16:31:07;;;;;;;;;;;;;;;;;;5029787;28;89142;-72
2023/06/27 16:33:32;;;;;;;;;;;;;;;;;;5022282;28;92430;-72
2023/06/27 16:35:57;;;;;;;;;;;;;;;;;;5026343;28;90084;-69
2023/06/27 16:38:23;;;;;;;;;;;;;;;;;;5027440;28;89106;-70